Time;durP1;ratioP1;P1;durP2;ratioP2;P2;SDS_P1;SDS_P2;PMS_P1;PMS_P2;Temp;Humidity;BMP_temperature;BMP_pressure;BME280_temperature;BME280_humidity;BME280_pressure;Samples;Min_cycle;Max_cycle;Signal;HPM_P1;HPM_P2
2023/06/21 00:01:41;;;;;;;14.20;12.90;;;22.60;99.90;;;;;;5021194;28;20217;-75
2023/06/21 00:04:33;;;;;;;15.02;13.52;;;22.60;99.90;;;;;;5038469;28;20225;-74
2023/06/21 00:07:24;;;;;;;16.65;12.57;;;22.60;99.90;;;;;;5028996;28;20225;-74
2023/06/21 00:10:12;;;;;;;13.98;12.77;;;22.60;99.90;;;;;;5052131;28;20224;-73
2023/06/21 00:13:04;;;;;;;13.50;12.18;;;22.50;99.90;;;;;;5039218;28;20214;-75
2023/06/21 00:15:54;;;;;;;14.30;12.43;;;22.60;99.90;;;;;;5031253;28;20273;-74
2023/06/21 00:18:43;;;;;;;13.02;11.82;;;22.60;99.90;;;;;;5026415;28;20223;-75
2023/06/21 00:21:32;;;;;;;13.52;12.32;;;22.60;99.90;;;;;;5033663;28;20213;-75
2023/06/21 00:24:23;;;;;;;14.68;12.38;;;22.60;99.90;;;;;;5022685;28;20247;-74
2023/06/21 00:27:11;;;;;;;13.30;12.10;;;22.50;99.90;;;;;;5038513;28;20266;-75
2023/06/21 00:30:00;;;;;;;15.68;14.18;;;22.50;99.90;;;;;;5041732;28;20236;-74
2023/06/21 00:32:50;;;;;;;15.43;13.82;;;22.40;99.90;;;;;;5023492;28;20267;-74
2023/06/21 00:35:39;;;;;;;16.83;15.10;;;22.30;99.90;;;;;;5036138;28;20225;-73
2023/06/21 00:38:27;;;;;;;17.58;15.98;;;22.20;99.90;;;;;;5039856;28;20232;-74
2023/06/21 00:41:17;;;;;;;18.48;16.58;;;22.10;99.90;;;;;;5036250;28;20599;-74
2023/06/21 00:44:07;;;;;;;18.27;16.35;;;22.00;99.90;;;;;;5032202;28;20366;-73
2023/06/21 00:46:56;;;;;;;18.25;16.45;;;21.90;99.90;;;;;;5028511;28;20368;-75
2023/06/21 00:49:45;;;;;;;17.75;15.95;;;21.90;99.90;;;;;;5032749;28;20304;-74
2023/06/21 00:52:37;;;;;;;18.42;16.75;;;21.90;99.90;;;;;;5035896;28;20225;-74
2023/06/21 00:55:26;;;;;;;19.20;17.20;;;21.90;99.90;;;;;;5020155;28;20217;-74
2023/06/21 00:58:20;;;;;;;18.45;16.70;;;21.80;99.90;;;;;;5015492;28;20310;-74
2023/06/21 01:01:09;;;;;;;19.00;17.10;;;21.70;99.90;;;;;;5012512;28;20316;-74
2023/06/21 01:03:58;;;;;;;21.27;17.83;;;21.70;99.90;;;;;;5013468;28;20248;-75
2023/06/21 01:06:53;;;;;;;20.08;17.70;;;21.60;99.90;;;;;;5018694;28;20268;-75
2023/06/21 01:09:55;;;;;;;19.42;17.52;;;21.60;99.90;;;;;;5035100;28;20226;-74
2023/06/21 01:12:57;;;;;;;23.25;19.40;;;21.60;99.90;;;;;;5014285;28;20224;-75
2023/06/21 01:15:51;;;;;;;23.33;18.42;;;21.50;99.90;;;;;;5022403;28;20247;-75
2023/06/21 01:18:44;;;;;;;20.25;18.35;;;21.60;99.90;;;;;;5033966;28;20248;-75
2023/06/21 01:21:34;;;;;;;21.88;18.52;;;21.50;99.90;;;;;;5044523;28;20224;-75
2023/06/21 01:24:33;;;;;;;20.08;18.08;;;21.50;99.90;;;;;;5041516;28;20228;-74
2023/06/21 01:27:34;;;;;;;22.88;18.10;;;21.60;99.90;;;;;;5025516;28;20232;-71
2023/06/21 01:30:30;;;;;;;20.90;18.67;;;21.50;99.90;;;;;;5037816;28;20231;-71
2023/06/21 01:33:21;;;;;;;20.52;18.52;;;21.40;99.90;;;;;;5020565;28;20221;-71
2023/06/21 01:36:10;;;;;;;21.17;18.98;;;21.40;99.90;;;;;;5032013;28;20692;-72
2023/06/21 01:38:59;;;;;;;20.30;18.15;;;21.40;99.90;;;;;;5040859;28;21006;-72
2023/06/21 01:41:48;;;;;;;19.75;17.85;;;21.30;99.90;;;;;;5039576;28;20217;-71
2023/06/21 01:44:37;;;;;;;19.90;18.00;;;21.50;99.90;;;;;;5030047;28;20247;-71
2023/06/21 01:47:28;;;;;;;20.42;18.40;;;21.50;99.90;;;;;;5024349;28;20359;-70
2023/06/21 01:50:20;;;;;;;19.98;17.98;;;21.50;99.90;;;;;;5037917;28;20248;-72
2023/06/21 01:53:10;;;;;;;19.63;17.63;;;21.40;99.90;;;;;;5035367;28;20224;-71
2023/06/21 01:56:01;;;;;;;20.20;18.13;;;21.40;99.90;;;;;;5039776;28;20224;-72
2023/06/21 01:58:50;;;;;;;19.92;18.02;;;21.40;99.90;;;;;;5023388;28;20240;-72
2023/06/21 02:01:42;;;;;;;19.70;17.73;;;21.40;99.90;;;;;;5032973;28;20226;-72
2023/06/21 02:04:35;;;;;;;19.23;17.25;;;21.50;99.90;;;;;;5039404;28;20251;-71
2023/06/21 02:07:24;;;;;;;19.23;17.27;;;21.40;99.90;;;;;;5014429;28;20437;-72
2023/06/21 02:10:16;;;;;;;17.20;15.40;;;21.40;99.90;;;;;;5018926;28;20308;-71
2023/06/21 02:13:09;;;;;;;19.55;16.45;;;21.30;99.90;;;;;;5025314;28;20304;-72
2023/06/21 02:15:57;;;;;;;18.33;16.40;;;21.40;99.90;;;;;;5027560;28;20289;-72
2023/06/21 02:18:48;;;;;;;17.77;15.98;;;21.50;99.90;;;;;;5006567;28;20260;-71
2023/06/21 02:21:38;;;;;;;18.52;16.65;;;21.30;99.90;;;;;;5040092;28;20233;-71
2023/06/21 02:24:27;;;;;;;17.45;15.85;;;21.30;99.90;;;;;;5017630;28;20671;-72
2023/06/21 02:27:16;;;;;;;18.30;16.40;;;21.30;99.90;;;;;;5032436;28;20232;-70
2023/06/21 02:30:07;;;;;;;19.05;17.13;;;21.30;99.90;;;;;;5036668;28;20683;-71
2023/06/21 02:32:58;;;;;;;19.70;17.35;;;21.30;99.90;;;;;;5025229;28;20371;-71
2023/06/21 02:35:47;;;;;;;20.13;17.88;;;21.20;99.90;;;;;;5028750;28;20704;-71
2023/06/21 02:38:37;;;;;;;21.33;19.15;;;21.10;99.90;;;;;;5022650;28;20264;-72
2023/06/21 02:41:26;;;;;;;20.77;18.75;;;21.20;99.90;;;;;;5035757;28;20782;-71
2023/06/21 02:44:15;;;;;;;25.67;19.92;;;21.10;99.90;;;;;;5039155;28;20236;-72
2023/06/21 02:47:04;;;;;;;20.98;18.77;;;21.10;99.90;;;;;;5024251;28;20224;-71
2023/06/21 02:49:54;;;;;;;21.70;19.42;;;21.20;99.90;;;;;;5024965;28;20236;-70
2023/06/21 02:52:45;;;;;;;21.80;19.60;;;21.20;99.90;;;;;;5034063;28;20318;-71
2023/06/21 02:55:36;;;;;;;21.70;19.45;;;21.10;99.90;;;;;;5055096;28;20293;-71
2023/06/21 02:58:25;;;;;;;22.23;20.05;;;21.20;99.90;;;;;;5059884;28;20306;-71
2023/06/21 03:01:15;;;;;;;25.27;20.70;;;21.20;99.90;;;;;;5053289;28;20234;-71
2023/06/21 03:04:08;;;;;;;22.75;20.40;;;21.10;99.90;;;;;;5054402;28;20599;-71
2023/06/21 03:07:01;;;;;;;24.08;21.58;;;21.10;99.90;;;;;;5044912;28;20221;-71
2023/06/21 03:09:50;;;;;;;22.52;20.42;;;21.10;99.90;;;;;;5054190;28;20773;-70
2023/06/21 03:12:41;;;;;;;24.13;21.45;;;21.10;99.90;;;;;;5057783;28;20220;-70
2023/06/21 03:15:30;;;;;;;23.30;21.10;;;21.20;99.90;;;;;;5054950;28;20216;-70
2023/06/21 03:18:19;;;;;;;22.23;20.13;;;21.00;99.90;;;;;;5045568;28;20227;-70
2023/06/21 03:21:10;;;;;;;23.08;20.73;;;21.20;99.90;;;;;;5041378;28;20224;-70
2023/06/21 03:24:00;;;;;;;22.13;19.92;;;21.20;99.90;;;;;;5032770;28;20626;-71
2023/06/21 03:26:49;;;;;;;23.88;21.48;;;21.20;99.90;;;;;;5031635;28;20217;-71
2023/06/21 03:29:39;;;;;;;23.65;20.70;;;21.40;99.90;;;;;;5045889;28;20232;-72
2023/06/21 03:32:29;;;;;;;23.35;21.02;;;21.30;99.90;;;;;;5040832;28;20220;-71
2023/06/21 03:35:19;;;;;;;23.48;21.08;;;21.40;99.90;;;;;;5042295;28;20235;-71
2023/06/21 03:38:10;;;;;;;24.23;21.80;;;21.30;99.90;;;;;;5052959;28;20772;-70
2023/06/21 03:41:02;;;;;;;23.50;21.30;;;21.20;99.90;;;;;;5042041;28;20323;-71
2023/06/21 03:43:52;;;;;;;24.13;21.73;;;21.30;99.90;;;;;;5039134;28;20204;-71
2023/06/21 03:46:42;;;;;;;24.00;21.60;;;21.40;99.90;;;;;;5067663;28;20216;-71
2023/06/21 03:49:34;;;;;;;24.63;22.25;;;21.30;99.90;;;;;;5036396;28;20624;-72
2023/06/21 03:52:22;;;;;;;25.73;23.00;;;21.30;99.90;;;;;;5056486;28;20239;-70
2023/06/21 03:55:11;;;;;;;23.67;21.27;;;21.40;99.90;;;;;;5037582;28;20228;-71
2023/06/21 03:58:00;;;;;;;23.55;21.13;;;21.40;99.90;;;;;;5057355;28;20223;-72
2023/06/21 04:00:49;;;;;;;23.58;20.50;;;21.60;99.90;;;;;;5034514;28;20221;-72
2023/06/21 04:03:40;;;;;;;24.13;20.90;;;21.60;99.90;;;;;;5053356;28;20267;-71
2023/06/21 04:06:28;;;;;;;25.38;22.67;;;21.70;99.90;;;;;;5044092;28;20278;-72
2023/06/21 04:09:18;;;;;;;24.25;21.85;;;21.80;99.90;;;;;;5048799;28;20224;-71
2023/06/21 04:12:11;;;;;;;21.83;19.52;;;21.90;99.90;;;;;;5045677;28;20221;-72
2023/06/21 04:15:01;;;;;;;23.80;21.33;;;22.10;99.90;;;;;;5027220;28;20216;-71
2023/06/21 04:17:50;;;;;;;21.00;18.92;;;22.20;99.90;;;;;;5047938;28;20235;-71
2023/06/21 04:20:40;;;;;;;22.50;20.23;;;22.20;99.90;;;;;;5059700;28;20224;-70
2023/06/21 04:23:29;;;;;;;22.15;19.90;;;22.20;99.90;;;;;;5057789;28;20221;-72
2023/06/21 04:26:18;;;;;;;21.38;19.10;;;22.20;99.90;;;;;;5025209;28;20277;-72
2023/06/21 04:29:07;;;;;;;22.83;19.65;;;22.10;99.90;;;;;;5052909;28;20263;-72
2023/06/21 04:31:56;;;;;;;21.73;19.63;;;22.10;99.90;;;;;;5041249;28;20231;-71
2023/06/21 04:34:47;;;;;;;21.15;19.15;;;22.10;99.90;;;;;;5043482;28;20354;-71
2023/06/21 04:37:38;;;;;;;21.23;18.98;;;22.20;99.90;;;;;;5042748;28;20217;-71
2023/06/21 04:40:26;;;;;;;21.25;19.05;;;22.30;99.90;;;;;;5028038;28;20216;-71
2023/06/21 04:43:15;;;;;;;21.30;19.02;;;22.30;99.90;;;;;;5060998;28;20220;-71
2023/06/21 04:46:04;;;;;;;20.35;18.45;;;22.30;99.90;;;;;;5058454;28;20278;-71
2023/06/21 04:48:53;;;;;;;21.58;19.33;;;22.40;99.90;;;;;;5060854;28;21003;-71
2023/06/21 04:51:44;;;;;;;20.75;18.75;;;22.40;99.90;;;;;;5059343;28;20748;-73
2023/06/21 04:54:35;;;;;;;21.13;18.98;;;22.40;99.90;;;;;;5043502;28;20229;-73
2023/06/21 04:57:23;;;;;;;21.88;18.85;;;22.40;99.90;;;;;;5039172;28;20221;-71
2023/06/21 05:00:14;;;;;;;20.52;18.48;;;22.40;99.90;;;;;;5045339;28;20430;-72
2023/06/21 05:03:03;;;;;;;21.05;18.95;;;22.40;99.90;;;;;;5053641;28;20224;-72
2023/06/21 05:05:52;;;;;;;19.50;17.42;;;22.40;99.90;;;;;;5053698;28;20243;-71
2023/06/21 05:08:42;;;;;;;20.40;18.27;;;22.40;99.90;;;;;;5048433;28;20227;-72
2023/06/21 05:11:32;;;;;;;23.40;20.05;;;22.40;99.90;;;;;;5063972;28;20234;-73
2023/06/21 05:14:21;;;;;;;20.70;18.67;;;22.30;99.90;;;;;;5034691;28;20217;-71
2023/06/21 05:17:12;;;;;;;20.50;18.40;;;22.30;99.90;;;;;;5042343;28;20235;-72
2023/06/21 05:20:02;;;;;;;21.75;19.50;;;22.50;99.90;;;;;;5028495;28;20777;-71
2023/06/21 05:22:53;;;;;;;20.73;18.70;;;22.40;99.90;;;;;;5038280;28;20217;-72
2023/06/21 05:25:43;;;;;;;23.40;18.80;;;22.70;99.90;;;;;;5022755;28;20221;-71
2023/06/21 05:28:33;;;;;;;21.00;18.77;;;22.90;99.90;;;;;;5040806;28;20233;-71
2023/06/21 05:31:23;;;;;;;20.08;18.08;;;23.30;99.90;;;;;;5032417;28;20233;-72
2023/06/21 05:34:15;;;;;;;21.15;18.30;;;23.70;99.90;;;;;;5044767;28;20240;-71
2023/06/21 05:37:04;;;;;;;20.40;18.42;;;23.70;99.90;;;;;;5058359;28;20231;-71
2023/06/21 05:39:52;;;;;;;19.92;17.85;;;23.60;99.90;;;;;;5039183;28;20263;-72
2023/06/21 05:42:44;;;;;;;19.13;17.27;;;23.70;99.90;;;;;;5057210;28;20231;-71
2023/06/21 05:45:35;;;;;;;18.45;16.55;;;23.70;99.90;;;;;;5044031;28;20231;-71
2023/06/21 05:48:24;;;;;;;17.90;16.30;;;23.70;99.90;;;;;;5046740;28;20231;-73
2023/06/21 05:51:12;;;;;;;21.70;16.23;;;23.70;99.90;;;;;;5050426;28;20266;-71
2023/06/21 05:54:02;;;;;;;19.50;16.42;;;23.70;99.90;;;;;;5057320;28;20231;-70
2023/06/21 05:56:52;;;;;;;18.27;16.42;;;23.70;99.90;;;;;;5045693;28;20231;-70
2023/06/21 05:59:43;;;;;;;18.45;16.50;;;23.80;99.90;;;;;;5038168;28;20228;-73
2023/06/21 06:02:33;;;;;;;20.52;16.52;;;23.70;99.90;;;;;;5059922;28;20603;-71
2023/06/21 06:05:22;;;;;;;18.02;16.23;;;23.70;99.90;;;;;;5048779;28;20240;-71
2023/06/21 06:08:10;;;;;;;19.42;16.52;;;23.70;99.90;;;;;;5054018;28;20680;-72
2023/06/21 06:10:59;;;;;;;24.40;17.27;;;23.70;99.90;;;;;;5040563;28;21016;-71
2023/06/21 06:13:48;;;;;;;18.58;16.60;;;23.80;99.90;;;;;;5056923;28;20221;-72
2023/06/21 06:16:37;;;;;;;19.08;17.05;;;24.30;99.90;;;;;;5057167;28;20261;-73
2023/06/21 06:19:27;;;;;;;18.10;16.40;;;25.30;99.90;;;;;;5056957;28;20955;-73
2023/06/21 06:22:16;;;;;;;20.85;16.33;;;25.80;99.90;;;;;;5060519;28;20357;-73
2023/06/21 06:25:06;;;;;;;19.30;16.70;;;25.30;99.90;;;;;;5050824;28;20227;-72
2023/06/21 06:27:55;;;;;;;18.30;16.45;;;25.10;99.90;;;;;;5052707;28;20869;-74
2023/06/21 06:30:44;;;;;;;18.23;15.57;;;25.20;99.90;;;;;;5047401;28;20217;-74
2023/06/21 06:33:33;;;;;;;20.40;15.73;;;25.40;99.90;;;;;;5037543;28;20228;-72
2023/06/21 06:36:23;;;;;;;16.80;15.07;;;25.70;99.90;;;;;;5054335;28;20683;-73
2023/06/21 06:39:12;;;;;;;18.73;14.73;;;26.00;99.90;;;;;;5057503;28;20318;-73
2023/06/21 06:42:01;;;;;;;16.60;14.65;;;26.70;99.90;;;;;;5052746;28;20315;-75
2023/06/21 06:44:52;;;;;;;17.52;14.50;;;27.30;99.90;;;;;;5054454;28;20224;-73
2023/06/21 06:47:42;;;;;;;15.68;14.13;;;27.60;99.90;;;;;;5051343;28;20900;-73
2023/06/21 06:50:32;;;;;;;16.30;14.70;;;27.40;99.90;;;;;;5050995;28;20802;-73
2023/06/21 06:53:24;;;;;;;15.10;13.63;;;27.70;99.90;;;;;;5022146;28;20278;-73
2023/06/21 06:56:13;;;;;;;16.00;14.27;;;27.60;99.90;;;;;;5029184;28;20225;-74
2023/06/21 06:59:03;;;;;;;15.70;14.30;;;27.50;99.90;;;;;;5031724;28;20611;-74
2023/06/21 07:01:52;;;;;;;18.52;13.75;;;27.40;99.90;;;;;;5042846;28;20227;-73
2023/06/21 07:04:41;;;;;;;14.23;12.93;;;27.50;99.90;;;;;;5036842;28;20237;-73
2023/06/21 07:07:30;;;;;;;16.17;13.52;;;27.60;99.90;;;;;;5030463;28;20221;-72
2023/06/21 07:10:22;;;;;;;13.80;12.50;;;27.70;99.90;;;;;;5043762;28;20220;-73
2023/06/21 07:13:11;;;;;;;14.73;13.30;;;28.00;99.90;;;;;;5047183;28;20266;-76
2023/06/21 07:16:00;;;;;;;15.20;12.73;;;29.50;99.90;;;;;;5047553;28;20264;-73
2023/06/21 07:18:49;;;;;;;16.25;13.48;;;29.30;99.90;;;;;;5065503;28;20303;-72
2023/06/21 07:21:39;;;;;;;14.40;13.10;;;29.30;99.90;;;;;;5055738;28;20240;-74
2023/06/21 07:24:29;;;;;;;14.45;12.95;;;29.10;99.90;;;;;;5053052;28;20252;-72
2023/06/21 07:27:19;;;;;;;14.13;12.77;;;29.20;99.90;;;;;;5059436;28;20228;-72
2023/06/21 07:30:09;;;;;;;14.80;12.52;;;29.40;99.90;;;;;;5055662;28;20216;-72
2023/06/21 07:32:58;;;;;;;14.65;12.63;;;29.60;99.90;;;;;;5042410;28;20711;-75
2023/06/21 07:35:50;;;;;;;14.40;12.93;;;30.20;99.90;;;;;;5044327;28;20220;-75
2023/06/21 07:41:36;;;;;;;13.93;12.30;;;31.10;99.90;;;;;;4951299;28;20224;-74
2023/06/21 07:44:27;;;;;;;12.80;11.55;;;31.40;98.90;;;;;;4936366;28;20338;-74
2023/06/21 07:47:16;;;;;;;14.05;12.43;;;31.90;99.00;;;;;;4940035;28;20386;-73
2023/06/21 07:50:06;;;;;;;13.85;12.68;;;31.90;99.30;;;;;;4945340;28;20321;-75
2023/06/21 07:52:58;;;;;;;13.75;11.77;;;31.80;97.70;;;;;;4943886;28;20255;-75
2023/06/21 07:55:47;;;;;;;14.07;11.95;;;31.80;98.90;;;;;;4943672;28;20311;-76
2023/06/21 07:58:36;;;;;;;13.52;11.98;;;32.30;97.10;;;;;;4937028;28;20255;-73
2023/06/21 08:01:27;;;;;;;12.63;11.40;;;32.30;96.70;;;;;;4950464;28;20246;-75
2023/06/21 08:04:16;;;;;;;12.13;11.02;;;32.80;95.70;;;;;;4953998;28;20223;-76
2023/06/21 08:07:05;;;;;;;11.73;10.48;;;33.00;92.00;;;;;;4958322;28;20274;-76
2023/06/21 08:09:54;;;;;;;11.93;10.60;;;32.70;90.10;;;;;;4945938;28;20580;-74
2023/06/21 08:12:43;;;;;;;11.30;10.18;;;32.10;91.00;;;;;;4944160;28;20847;-75
2023/06/21 08:15:32;;;;;;;11.73;10.52;;;31.80;91.20;;;;;;4962827;28;20281;-79
2023/06/21 08:18:22;;;;;;;13.90;10.52;;;30.80;91.40;;;;;;4945896;28;20227;-75
2023/06/21 08:21:11;;;;;;;11.95;10.73;;;30.80;92.10;;;;;;4940689;28;20700;-76
2023/06/21 08:24:01;;;;;;;11.35;10.35;;;31.50;90.60;;;;;;4943704;28;20276;-74
2023/06/21 08:26:50;;;;;;;13.63;11.00;;;31.70;91.90;;;;;;4927437;28;20219;-74
2023/06/21 08:29:39;;;;;;;12.55;10.57;;;31.90;92.10;;;;;;4940489;28;20564;-73
2023/06/21 08:32:28;;;;;;;12.02;10.85;;;32.20;90.90;;;;;;4953544;28;20251;-73
2023/06/21 08:35:19;;;;;;;12.05;11.02;;;33.00;92.10;;;;;;4949850;28;20259;-73
2023/06/21 08:38:08;;;;;;;11.70;10.23;;;33.50;91.50;;;;;;4943897;28;20219;-73
2023/06/21 08:41:15;;;;;;;11.23;10.13;;;34.00;90.80;;;;;;4942452;28;20998;-76
2023/06/21 08:44:05;;;;;;;11.20;10.02;;;34.30;87.30;;;;;;4941289;28;20396;-74
2023/06/21 08:46:56;;;;;;;10.73;9.73;;;33.80;86.50;;;;;;4948151;28;20227;-74
2023/06/21 08:49:47;;;;;;;11.65;10.70;;;34.10;86.50;;;;;;4944910;28;20212;-74
2023/06/21 08:52:38;;;;;;;11.20;10.13;;;34.00;85.30;;;;;;4948750;28;20227;-75
2023/06/21 08:55:29;;;;;;;11.23;10.07;;;34.30;85.70;;;;;;4935554;28;20714;-79
2023/06/21 08:58:26;;;;;;;11.32;10.18;;;34.50;87.60;;;;;;4941175;28;20239;-78
2023/06/21 09:01:17;;;;;;;11.02;10.13;;;34.70;85.30;;;;;;4940444;28;20236;-79
2023/06/21 09:04:11;;;;;;;11.60;10.43;;;34.80;85.20;;;;;;4947391;28;20235;-76
2023/06/21 09:07:02;;;;;;;12.20;9.93;;;34.40;84.10;;;;;;4956520;28;20225;-76
2023/06/21 09:09:54;;;;;;;11.07;9.98;;;34.40;85.60;;;;;;4954119;28;20220;-77
2023/06/21 09:12:45;;;;;;;11.18;10.02;;;34.70;81.60;;;;;;4945738;28;20726;-78
2023/06/21 09:15:37;;;;;;;11.57;10.52;;;34.40;80.50;;;;;;4944928;28;20224;-78
2023/06/21 09:18:35;;;;;;;12.98;9.90;;;34.10;84.10;;;;;;4948638;28;20290;-78
2023/06/21 09:21:26;;;;;;;11.98;10.13;;;33.80;84.00;;;;;;4941907;28;20220;-78
2023/06/21 09:24:16;;;;;;;11.32;10.23;;;33.10;84.90;;;;;;4939986;28;20417;-77
2023/06/21 09:27:07;;;;;;;14.45;10.40;;;32.60;83.80;;;;;;4944554;28;20809;-79
2023/06/21 09:29:56;;;;;;;11.63;10.63;;;32.50;86.60;;;;;;4941193;28;20223;-78
2023/06/21 09:32:59;;;;;;;14.10;11.05;;;32.50;87.70;;;;;;4945560;28;20227;-77
2023/06/21 09:35:49;;;;;;;12.40;10.60;;;32.70;87.00;;;;;;4951220;28;20223;-78
2023/06/21 09:38:39;;;;;;;13.23;10.20;;;32.90;84.60;;;;;;4952737;28;20231;-76
2023/06/21 09:41:31;;;;;;;11.88;10.18;;;32.50;83.90;;;;;;4944339;28;20301;-75
2023/06/21 09:44:22;;;;;;;11.50;10.40;;;32.10;87.00;;;;;;4943289;28;20258;-74
2023/06/21 09:47:12;;;;;;;11.13;10.13;;;32.00;84.30;;;;;;4948457;28;20235;-73
2023/06/21 09:50:06;;;;;;;10.82;9.82;;;31.90;85.10;;;;;;4943056;28;20667;-73
2023/06/21 09:52:55;;;;;;;11.98;10.50;;;32.40;82.90;;;;;;4948405;28;20216;-74
2023/06/21 09:55:45;;;;;;;11.45;10.18;;;33.00;82.30;;;;;;4940453;28;20611;-76
2023/06/21 09:58:35;;;;;;;11.30;10.32;;;33.30;80.50;;;;;;4938076;28;20639;-77
2023/06/21 10:01:25;;;;;;;14.82;9.98;;;32.80;81.00;;;;;;4955933;28;20247;-70
2023/06/21 10:04:16;;;;;;;11.73;10.38;;;32.40;82.20;;;;;;4949736;28;21199;-75
2023/06/21 10:07:05;;;;;;;11.13;10.02;;;32.00;83.70;;;;;;4955879;28;20223;-73
2023/06/21 10:09:55;;;;;;;12.20;10.40;;;31.60;84.50;;;;;;4944816;28;20228;-72
2023/06/21 10:12:53;;;;;;;11.70;10.55;;;31.40;84.60;;;;;;4942784;28;20264;-69
2023/06/21 10:15:46;;;;;;;11.75;10.80;;;31.00;86.00;;;;;;4946713;28;20759;-70
2023/06/21 10:18:38;;;;;;;12.25;11.05;;;30.70;86.00;;;;;;4955608;28;20245;-72
2023/06/21 10:21:31;;;;;;;13.60;10.75;;;30.50;86.80;;;;;;4955789;28;20236;-72
2023/06/21 10:24:24;;;;;;;12.07;10.85;;;30.40;87.40;;;;;;4955757;28;20251;-71
2023/06/21 10:27:15;;;;;;;11.50;10.40;;;30.30;87.70;;;;;;4956563;28;20228;-72
2023/06/21 10:30:06;;;;;;;12.40;10.38;;;30.10;88.30;;;;;;4956133;28;20226;-72
2023/06/21 10:32:57;;;;;;;12.93;10.43;;;29.80;87.50;;;;;;4942324;28;20307;-73
2023/06/21 10:35:49;;;;;;;12.27;11.07;;;29.70;87.90;;;;;;4956264;28;20219;-73
2023/06/21 10:38:43;;;;;;;12.32;10.73;;;29.60;89.30;;;;;;4937801;28;20224;-72
2023/06/21 10:41:34;;;;;;;12.43;11.15;;;29.50;87.70;;;;;;4946938;28;20219;-73
2023/06/21 10:44:23;;;;;;;12.23;10.93;;;29.40;88.20;;;;;;4946601;28;20693;-70
2023/06/21 10:47:13;;;;;;;12.07;10.90;;;29.30;88.50;;;;;;4938830;28;20224;-72
2023/06/21 10:50:03;;;;;;;11.63;10.55;;;29.20;89.40;;;;;;4942312;28;20227;-75
2023/06/21 10:52:55;;;;;;;12.38;11.18;;;29.20;89.50;;;;;;4942454;28;20224;-72
2023/06/21 10:55:46;;;;;;;11.63;10.63;;;29.20;89.60;;;;;;4943160;28;20226;-72
2023/06/21 10:58:35;;;;;;;15.40;11.63;;;29.00;90.00;;;;;;4943989;28;20298;-72
2023/06/21 11:01:24;;;;;;;12.85;11.57;;;29.10;90.40;;;;;;4946768;28;20239;-70
2023/06/21 11:04:13;;;;;;;11.90;10.90;;;29.00;90.70;;;;;;4946529;28;21068;-72
2023/06/21 11:07:02;;;;;;;13.45;11.88;;;28.90;90.70;;;;;;4941238;28;20706;-73
2023/06/21 11:09:55;;;;;;;12.45;11.27;;;28.80;91.70;;;;;;4938692;28;20639;-70
2023/06/21 11:12:44;;;;;;;14.73;11.88;;;28.70;92.60;;;;;;4942842;28;20242;-73
2023/06/21 11:15:35;;;;;;;13.13;11.85;;;28.70;93.70;;;;;;4945022;28;20326;-74
2023/06/21 11:18:23;;;;;;;13.48;12.15;;;28.60;93.60;;;;;;4939407;28;20266;-75
2023/06/21 11:21:13;;;;;;;13.77;12.48;;;28.50;94.30;;;;;;4930578;28;20276;-76
2023/06/21 11:24:07;;;;;;;20.15;12.45;;;28.40;95.70;;;;;;4948266;28;20935;-70
2023/06/21 11:27:03;;;;;;;14.15;12.32;;;28.40;96.00;;;;;;4949081;28;20227;-72
2023/06/21 11:29:59;;;;;;;14.27;12.20;;;28.40;95.40;;;;;;4935576;28;20226;-70
2023/06/21 11:32:56;;;;;;;13.65;12.30;;;28.30;93.90;;;;;;4946336;28;20231;-71
2023/06/21 11:35:49;;;;;;;13.52;12.27;;;28.30;95.10;;;;;;4944535;28;20231;-70
2023/06/21 11:38:48;;;;;;;13.05;11.20;;;28.20;95.50;;;;;;4944603;28;20228;-70
2023/06/21 11:42:00;;;;;;;15.43;11.68;;;27.90;94.50;;;;;;4944164;28;20294;-71
2023/06/21 11:44:49;;;;;;;13.68;12.48;;;27.70;94.20;;;;;;4951480;28;20230;-71
2023/06/21 11:47:43;;;;;;;13.32;12.07;;;27.60;95.00;;;;;;4941252;28;20693;-71
2023/06/21 11:50:34;;;;;;;15.18;13.65;;;27.40;97.80;;;;;;4951396;28;20702;-70
2023/06/21 11:53:28;;;;;;;18.48;14.52;;;27.10;99.90;;;;;;4921962;28;20250;-70
2023/06/21 11:56:19;;;;;;;18.67;15.98;;;26.60;99.90;;;;;;4939518;28;20246;-70
2023/06/21 11:59:09;;;;;;;17.83;15.80;;;25.90;99.90;;;;;;4938965;28;20643;-71
2023/06/21 12:02:11;;;;;;;22.63;16.23;;;25.40;99.90;;;;;;4943244;28;20708;-70
2023/06/21 12:05:00;;;;;;;19.25;17.15;;;25.00;99.90;;;;;;4940990;28;20246;-71
2023/06/21 12:07:50;;;;;;;18.15;16.38;;;24.80;99.90;;;;;;4948932;28;20274;-71
2023/06/21 12:10:40;;;;;;;18.52;16.73;;;24.70;99.90;;;;;;4943952;28;20322;-69
2023/06/21 12:13:31;;;;;;;16.73;15.00;;;24.90;99.90;;;;;;4946720;28;20661;-72
2023/06/21 12:16:24;;;;;;;16.83;15.05;;;24.70;99.90;;;;;;4937936;28;20867;-71
2023/06/21 12:19:21;;;;;;;17.58;15.77;;;24.70;99.90;;;;;;4944518;28;20256;-71
2023/06/21 12:22:14;;;;;;;17.13;15.32;;;24.80;99.90;;;;;;4945068;28;20228;-71
2023/06/21 12:25:03;;;;;;;17.80;16.15;;;24.90;99.90;;;;;;4948874;28;20228;-70
2023/06/21 12:27:54;;;;;;;17.33;15.65;;;25.00;99.90;;;;;;4946169;28;20231;-69
2023/06/21 12:30:53;;;;;;;17.13;15.43;;;25.30;99.90;;;;;;4944882;28;20877;-69
2023/06/21 12:33:44;;;;;;;17.67;15.98;;;25.40;99.90;;;;;;4950863;28;20251;-72
2023/06/21 12:36:33;;;;;;;16.90;15.27;;;25.50;99.90;;;;;;4937679;28;20568;-71
2023/06/21 12:39:22;;;;;;;14.93;13.45;;;25.70;99.90;;;;;;4942460;28;20252;-71
2023/06/21 12:42:12;;;;;;;15.45;13.60;;;25.70;99.90;;;;;;4940858;28;20230;-70
2023/06/21 12:45:01;;;;;;;15.68;13.60;;;26.00;99.90;;;;;;4947814;28;20235;-70
2023/06/21 12:47:51;;;;;;;16.35;14.85;;;26.20;99.90;;;;;;4943947;28;20336;-69
2023/06/21 12:50:42;;;;;;;14.85;13.32;;;26.30;99.90;;;;;;4937925;28;20703;-71
2023/06/21 12:53:36;;;;;;;15.80;14.20;;;26.50;99.90;;;;;;4935477;28;20235;-70
2023/06/21 12:56:29;;;;;;;17.92;14.68;;;26.70;99.90;;;;;;4938292;28;20243;-71
2023/06/21 12:59:18;;;;;;;16.10;13.90;;;26.80;99.90;;;;;;4940855;28;20600;-71
2023/06/21 13:02:09;;;;;;;15.98;14.27;;;26.80;99.90;;;;;;4941837;28;20737;-71
2023/06/21 13:04:58;;;;;;;16.58;14.90;;;26.70;99.90;;;;;;4925834;28;20231;-71
2023/06/21 13:07:48;;;;;;;15.15;13.70;;;26.70;99.90;;;;;;4947250;28;20235;-71
2023/06/21 13:10:37;;;;;;;14.93;13.43;;;26.50;99.90;;;;;;4945029;28;20247;-72
2023/06/21 13:13:27;;;;;;;14.52;13.20;;;26.40;99.90;;;;;;4942451;28;20235;-69
2023/06/21 13:16:17;;;;;;;14.93;13.52;;;26.30;99.90;;;;;;4949390;28;20838;-70
2023/06/21 13:19:07;;;;;;;15.30;13.90;;;26.30;99.90;;;;;;4937224;28;20311;-68
2023/06/21 13:21:57;;;;;;;14.15;12.85;;;26.20;99.90;;;;;;4942345;28;20240;-71
2023/06/21 13:24:48;;;;;;;17.70;13.63;;;26.30;99.90;;;;;;4945445;28;20224;-71
2023/06/21 13:27:37;;;;;;;13.75;12.52;;;26.40;99.90;;;;;;4946401;28;20759;-69
2023/06/21 13:30:26;;;;;;;13.70;12.43;;;26.40;99.90;;;;;;4950476;28;20235;-68
2023/06/21 13:33:19;;;;;;;14.27;12.82;;;26.30;99.90;;;;;;4952959;28;20232;-70
2023/06/21 13:36:09;;;;;;;14.38;12.88;;;26.40;99.90;;;;;;4942146;28;20259;-70
2023/06/21 13:38:58;;;;;;;14.02;12.63;;;26.40;99.90;;;;;;4938430;28;20224;-69
2023/06/21 13:41:48;;;;;;;13.93;12.52;;;26.40;99.90;;;;;;4929091;29;20336;-68
2023/06/21 13:44:37;;;;;;;13.98;12.48;;;26.60;99.90;;;;;;4927717;29;20267;-70
2023/06/21 13:47:26;;;;;;;13.85;12.55;;;26.60;99.90;;;;;;4921912;29;20728;-69
2023/06/21 13:50:14;;;;;;;14.98;13.48;;;26.60;99.90;;;;;;4912799;29;20232;-70
2023/06/21 13:53:03;;;;;;;14.23;12.90;;;26.70;99.90;;;;;;4930461;29;20247;-69
2023/06/21 13:55:52;;;;;;;14.40;12.90;;;26.80;99.90;;;;;;4929222;29;20567;-72
2023/06/21 13:58:44;;;;;;;14.07;12.57;;;26.80;99.90;;;;;;4929264;29;20239;-71
2023/06/21 14:01:35;;;;;;;13.55;12.25;;;26.90;99.90;;;;;;4923075;29;20232;-70
2023/06/21 14:04:24;;;;;;;14.63;13.13;;;26.90;99.90;;;;;;4920503;29;20570;-69
2023/06/21 14:07:15;;;;;;;14.02;12.55;;;27.00;99.90;;;;;;4923866;29;20244;-71
2023/06/21 14:10:04;;;;;;;14.00;12.50;;;27.00;99.90;;;;;;4923027;29;20221;-70
2023/06/21 14:12:53;;;;;;;12.13;10.93;;;26.90;99.90;;;;;;4931046;28;20220;-71
2023/06/21 14:15:43;;;;;;;13.32;12.13;;;27.00;99.90;;;;;;4914562;29;20249;-71
2023/06/21 14:18:33;;;;;;;12.65;11.45;;;27.20;99.90;;;;;;4928085;29;20235;-71
2023/06/21 14:21:35;;;;;;;12.90;11.50;;;27.30;99.90;;;;;;4920736;29;20228;-70
2023/06/21 14:24:23;;;;;;;12.82;11.02;;;27.30;99.90;;;;;;4929742;29;20267;-70
2023/06/21 14:27:12;;;;;;;12.40;10.88;;;27.50;99.90;;;;;;4923439;29;20360;-69
2023/06/21 14:30:02;;;;;;;12.73;10.90;;;27.60;99.90;;;;;;4929697;29;20320;-72